Time;durP1;ratioP1;P1;durP2;ratioP2;P2;SDS_P1;SDS_P2;PMS_P1;PMS_P2;Temp;Humidity;BMP_temperature;BMP_pressure;BME280_temperature;BME280_humidity;BME280_pressure;Samples;Min_cycle;Max_cycle;Signal;HPM_P1;HPM_P2
2023/09/22 00:01:22;;;;;;;13.70;8.00;;;;;;;;;;4996906;28;20026;-75
2023/09/22 00:03:48;;;;;;;14.57;9.05;;;;;;;;;;5014299;28;20076;-75
2023/09/22 00:06:15;;;;;;;18.13;8.52;;;;;;;;;;5014393;28;20018;-76
2023/09/22 00:08:41;;;;;;;16.55;8.15;;;;;;;;;;5014091;28;20018;-75
2023/09/22 00:11:07;;;;;;;18.13;8.23;;;;;;;;;;5014120;28;20061;-76
2023/09/22 00:13:34;;;;;;;16.67;8.52;;;;;;;;;;5014046;28;20029;-75
2023/09/22 00:16:00;;;;;;;20.83;8.70;;;;;;;;;;5014040;28;20021;-75
2023/09/22 00:18:26;;;;;;;21.40;8.23;;;;;;;;;;4996476;28;20080;-75
2023/09/22 00:20:52;;;;;;;17.02;8.20;;;;;;;;;;5014583;28;20374;-75
2023/09/22 00:23:18;;;;;;;20.80;8.30;;;;;;;;;;5013467;28;20028;-75
2023/09/22 00:25:44;;;;;;;19.98;8.63;;;;;;;;;;5013464;28;20022;-75
2023/09/22 00:28:10;;;;;;;16.98;8.50;;;;;;;;;;5013608;28;20064;-75
2023/09/22 00:30:36;;;;;;;16.83;8.93;;;;;;;;;;5013514;28;20109;-75
2023/09/22 00:33:02;;;;;;;19.77;9.02;;;;;;;;;;5013419;28;20396;-75
2023/09/22 00:35:29;;;;;;;24.92;9.68;;;;;;;;;;5013821;28;20103;-75
2023/09/22 00:37:55;;;;;;;24.05;9.95;;;;;;;;;;5013441;28;20062;-75
2023/09/22 00:40:22;;;;;;;18.50;9.40;;;;;;;;;;5013157;28;20061;-75
2023/09/22 00:42:48;;;;;;;23.42;10.52;;;;;;;;;;5013072;28;20053;-75
2023/09/22 00:45:16;;;;;;;22.33;9.55;;;;;;;;;;5013602;28;20058;-75
2023/09/22 00:47:42;;;;;;;17.92;8.90;;;;;;;;;;5013585;28;20026;-75
2023/09/22 00:50:11;;;;;;;21.65;8.98;;;;;;;;;;5013415;28;20032;-75
2023/09/22 00:52:37;;;;;;;19.40;9.13;;;;;;;;;;5013341;28;20126;-75
2023/09/22 00:55:05;;;;;;;20.60;9.30;;;;;;;;;;5013175;28;20026;-75
2023/09/22 00:57:31;;;;;;;21.55;9.13;;;;;;;;;;5013179;28;20026;-75
2023/09/22 00:59:57;;;;;;;14.35;8.32;;;;;;;;;;5013029;28;20389;-75
2023/09/22 01:02:24;;;;;;;18.85;9.25;;;;;;;;;;4995674;28;20096;-75
2023/09/22 01:04:50;;;;;;;13.68;8.35;;;;;;;;;;5013288;28;20037;-75
2023/09/22 01:07:17;;;;;;;21.23;8.85;;;;;;;;;;5013023;28;20053;-75
2023/09/22 01:09:43;;;;;;;21.27;9.15;;;;;;;;;;5012861;28;20439;-75
2023/09/22 01:12:09;;;;;;;16.65;8.65;;;;;;;;;;5012898;28;20022;-75
2023/09/22 01:14:35;;;;;;;16.30;8.55;;;;;;;;;;5013246;28;20026;-75
2023/09/22 01:17:01;;;;;;;18.95;8.80;;;;;;;;;;5012785;28;20056;-75
2023/09/22 01:19:27;;;;;;;21.58;8.48;;;;;;;;;;5012903;28;20111;-75
2023/09/22 01:21:55;;;;;;;15.57;7.85;;;;;;;;;;5012412;28;20053;-75
2023/09/22 01:24:23;;;;;;;15.77;8.32;;;;;;;;;;4995288;28;20049;-75
2023/09/22 01:26:49;;;;;;;18.00;8.20;;;;;;;;;;5013207;28;20029;-75
2023/09/22 01:29:16;;;;;;;13.50;7.68;;;;;;;;;;5012724;28;20053;-75
2023/09/22 01:31:42;;;;;;;25.02;7.50;;;;;;;;;;5012701;28;20026;-75
2023/09/22 01:34:08;;;;;;;12.77;7.40;;;;;;;;;;5012968;28;20137;-75
2023/09/22 01:36:34;;;;;;;17.50;8.32;;;;;;;;;;5012587;28;20066;-75
2023/09/22 01:39:01;;;;;;;17.73;7.22;;;;;;;;;;5012603;28;20051;-75
2023/09/22 01:41:29;;;;;;;73.97;9.13;;;;;;;;;;5012975;28;20029;-75
2023/09/22 01:43:55;;;;;;;16.35;8.25;;;;;;;;;;5013004;28;20056;-75
2023/09/22 01:46:21;;;;;;;74.72;8.88;;;;;;;;;;5012853;28;20064;-75
2023/09/22 01:48:47;;;;;;;128.00;9.50;;;;;;;;;;5012438;28;20061;-75
2023/09/22 01:51:14;;;;;;;56.88;7.68;;;;;;;;;;5012739;28;20527;-75
2023/09/22 01:53:40;;;;;;;129.50;8.65;;;;;;;;;;5015941;28;20025;-75
2023/09/22 01:56:06;;;;;;;16.33;5.28;;;;;;;;;;5016661;28;20026;-75
2023/09/22 01:58:32;;;;;;;23.73;4.72;;;;;;;;;;5016602;28;20044;-75
2023/09/22 02:00:59;;;;;;;5.95;3.70;;;;;;;;;;5016398;28;20042;-75
2023/09/22 02:03:25;;;;;;;4.75;3.42;;;;;;;;;;5016692;28;20030;-75
2023/09/22 02:05:51;;;;;;;2.88;2.13;;;;;;;;;;5016279;28;20030;-75
2023/09/22 02:08:17;;;;;;;10.18;2.58;;;;;;;;;;5016235;28;20037;-75
2023/09/22 02:10:43;;;;;;;2.72;2.10;;;;;;;;;;5016265;28;20062;-75
2023/09/22 02:13:09;;;;;;;19.42;2.70;;;;;;;;;;5016205;28;20045;-75
2023/09/22 02:15:36;;;;;;;4.80;2.00;;;;;;;;;;5016219;28;20037;-75
2023/09/22 02:18:02;;;;;;;4.30;1.83;;;;;;;;;;5016128;28;20030;-75
2023/09/22 02:20:30;;;;;;;2.13;1.50;;;;;;;;;;5016001;28;20056;-75
2023/09/22 02:22:56;;;;;;;2.92;1.40;;;;;;;;;;5016242;28;20033;-75
2023/09/22 02:25:23;;;;;;;5.18;1.90;;;;;;;;;;5016048;28;20018;-75
2023/09/22 02:27:51;;;;;;;3.50;1.48;;;;;;;;;;5015924;28;20034;-75
2023/09/22 02:30:17;;;;;;;2.65;1.65;;;;;;;;;;5016096;28;20412;-75
2023/09/22 02:32:44;;;;;;;9.20;1.83;;;;;;;;;;5015777;28;20038;-75
2023/09/22 02:35:11;;;;;;;5.07;2.08;;;;;;;;;;5015750;28;20495;-75
2023/09/22 02:37:37;;;;;;;1.70;1.60;;;;;;;;;;5015854;28;20026;-75
2023/09/22 02:40:05;;;;;;;4.43;1.60;;;;;;;;;;5015623;28;20105;-75
2023/09/22 02:42:31;;;;;;;3.67;1.98;;;;;;;;;;5015768;28;20542;-75
2023/09/22 02:44:57;;;;;;;2.05;1.77;;;;;;;;;;5015714;28;20033;-75
2023/09/22 02:47:23;;;;;;;3.85;2.10;;;;;;;;;;5015518;28;20041;-75
2023/09/22 02:49:49;;;;;;;17.95;2.53;;;;;;;;;;5015524;28;20026;-75
2023/09/22 02:52:16;;;;;;;5.15;2.10;;;;;;;;;;5015744;28;20492;-75
2023/09/22 02:54:42;;;;;;;7.63;2.42;;;;;;;;;;5015459;28;20661;-75
2023/09/22 02:57:08;;;;;;;2.65;2.45;;;;;;;;;;5015278;28;20040;-75
2023/09/22 02:59:34;;;;;;;6.53;3.17;;;;;;;;;;5015309;28;20029;-75
2023/09/22 03:02:00;;;;;;;4.05;3.10;;;;;;;;;;5015251;28;20022;-75
2023/09/22 03:04:30;;;;;;;4.32;3.45;;;;;;;;;;5014789;28;20029;-75
2023/09/22 03:06:56;;;;;;;16.45;3.95;;;;;;;;;;5015384;28;20116;-75
2023/09/22 03:09:22;;;;;;;5.68;3.90;;;;;;;;;;5015126;28;20081;-75
2023/09/22 03:11:48;;;;;;;9.30;4.35;;;;;;;;;;5015064;28;20029;-75
2023/09/22 03:14:14;;;;;;;5.22;4.10;;;;;;;;;;5015103;28;20026;-75
2023/09/22 03:16:41;;;;;;;7.43;4.82;;;;;;;;;;5015014;28;20361;-75
2023/09/22 03:19:09;;;;;;;7.90;4.90;;;;;;;;;;5015185;28;20088;-75
2023/09/22 03:21:35;;;;;;;6.68;4.75;;;;;;;;;;5014686;28;20077;-75
2023/09/22 03:24:01;;;;;;;7.93;4.40;;;;;;;;;;5014819;28;20077;-75
2023/09/22 03:26:27;;;;;;;9.13;5.05;;;;;;;;;;5014891;28;20022;-75
2023/09/22 03:28:53;;;;;;;6.97;5.15;;;;;;;;;;5014902;28;20040;-75
2023/09/22 03:31:19;;;;;;;7.18;4.88;;;;;;;;;;5014726;28;20673;-74
2023/09/22 03:33:49;;;;;;;49.10;7.53;;;;;;;;;;5014513;28;20060;-74
2023/09/22 03:36:15;;;;;;;11.45;5.68;;;;;;;;;;5014669;28;20064;-75
2023/09/22 03:38:42;;;;;;;14.77;7.35;;;;;;;;;;5014710;28;20109;-75
2023/09/22 03:41:08;;;;;;;12.70;6.70;;;;;;;;;;5014654;28;20022;-75
2023/09/22 03:43:34;;;;;;;14.07;7.13;;;;;;;;;;5014423;28;20350;-75
2023/09/22 03:46:01;;;;;;;16.10;7.75;;;;;;;;;;5014461;28;20026;-75
2023/09/22 03:48:27;;;;;;;16.55;8.45;;;;;;;;;;5014440;28;20049;-75
2023/09/22 03:50:53;;;;;;;19.00;8.82;;;;;;;;;;5014317;28;20065;-75
2023/09/22 03:53:20;;;;;;;23.63;9.40;;;;;;;;;;5014336;28;20471;-75
2023/09/22 03:55:46;;;;;;;29.83;10.15;;;;;;;;;;5014562;28;20025;-75
2023/09/22 03:58:13;;;;;;;29.52;9.63;;;;;;;;;;5014106;28;20034;-75
2023/09/22 04:00:39;;;;;;;27.23;8.90;;;;;;;;;;5014539;28;20022;-75
2023/09/22 04:03:07;;;;;;;24.52;9.20;;;;;;;;;;5014385;28;20022;-75
2023/09/22 04:05:34;;;;;;;23.92;8.55;;;;;;;;;;5014322;28;20475;-75
2023/09/22 04:08:00;;;;;;;22.27;8.57;;;;;;;;;;5013996;28;20022;-75
2023/09/22 04:10:26;;;;;;;20.58;8.13;;;;;;;;;;5014243;28;20037;-74
2023/09/22 04:12:52;;;;;;;22.27;7.45;;;;;;;;;;5014207;28;20030;-75
2023/09/22 04:15:19;;;;;;;19.83;6.82;;;;;;;;;;5013375;28;20101;-75
2023/09/22 04:17:46;;;;;;;16.40;7.50;;;;;;;;;;5013552;28;20026;-75
2023/09/22 04:20:13;;;;;;;15.45;6.60;;;;;;;;;;5013686;28;20365;-74
2023/09/22 04:22:41;;;;;;;14.15;6.88;;;;;;;;;;4996212;28;20119;-75
2023/09/22 04:25:13;;;;;;;14.98;6.80;;;;;;;;;;5013984;28;20022;-75
2023/09/22 04:27:44;;;;;;;12.73;7.00;;;;;;;;;;5013645;28;20585;-75
2023/09/22 04:30:15;;;;;;;13.43;7.38;;;;;;;;;;5013629;28;20025;-75
2023/09/22 04:32:41;;;;;;;16.40;7.03;;;;;;;;;;5013861;28;20018;-75
2023/09/22 04:35:08;;;;;;;17.75;7.50;;;;;;;;;;5013526;28;20416;-75
2023/09/22 04:37:34;;;;;;;17.67;6.93;;;;;;;;;;5013437;28;20087;-75
2023/09/22 04:40:00;;;;;;;14.73;7.75;;;;;;;;;;5013443;28;20030;-75
2023/09/22 04:42:27;;;;;;;18.40;7.22;;;;;;;;;;5013288;28;20022;-75
2023/09/22 04:44:53;;;;;;;18.83;8.68;;;;;;;;;;5013597;28;20057;-75
2023/09/22 04:47:19;;;;;;;19.65;8.18;;;;;;;;;;5013280;28;20053;-75
2023/09/22 04:49:45;;;;;;;19.88;8.40;;;;;;;;;;5013250;28;20037;-75
2023/09/22 04:52:11;;;;;;;21.55;8.90;;;;;;;;;;5013208;28;20022;-75
2023/09/22 04:54:37;;;;;;;22.05;9.13;;;;;;;;;;5013146;28;20469;-75
2023/09/22 04:57:03;;;;;;;25.25;8.93;;;;;;;;;;5012941;28;20037;-75
2023/09/22 04:59:29;;;;;;;25.55;9.20;;;;;;;;;;5013297;28;20056;-75
2023/09/22 05:01:57;;;;;;;25.60;9.60;;;;;;;;;;5013517;28;20102;-75
2023/09/22 05:04:23;;;;;;;21.75;9.48;;;;;;;;;;5013299;28;20030;-75
2023/09/22 05:06:50;;;;;;;29.80;10.40;;;;;;;;;;5013003;28;20022;-75
2023/09/22 05:09:16;;;;;;;25.50;10.30;;;;;;;;;;5012926;28;20075;-75
2023/09/22 05:11:42;;;;;;;27.02;11.32;;;;;;;;;;5012821;28;20105;-75
2023/09/22 05:14:14;;;;;;;30.48;11.05;;;;;;;;;;5013012;28;20029;-74
2023/09/22 05:16:42;;;;;;;28.70;11.27;;;;;;;;;;5013040;28;20037;-75
2023/09/22 05:19:08;;;;;;;31.80;11.82;;;;;;;;;;5013184;28;20014;-75
2023/09/22 05:21:34;;;;;;;32.40;12.05;;;;;;;;;;5012856;28;20042;-75
2023/09/22 05:24:02;;;;;;;31.85;11.77;;;;;;;;;;5013299;28;20014;-75
2023/09/22 05:26:28;;;;;;;27.88;11.02;;;;;;;;;;5012967;28;20014;-75
2023/09/22 05:28:54;;;;;;;28.27;10.60;;;;;;;;;;5012588;28;20569;-74
2023/09/22 05:31:21;;;;;;;25.98;10.48;;;;;;;;;;5012909;28;20030;-74
2023/09/22 05:33:47;;;;;;;25.45;10.57;;;;;;;;;;5013156;28;20022;-74
2023/09/22 05:36:13;;;;;;;28.83;10.60;;;;;;;;;;5012713;28;20030;-74
2023/09/22 05:38:39;;;;;;;31.98;10.70;;;;;;;;;;5012969;28;20109;-74
2023/09/22 05:41:05;;;;;;;27.35;10.48;;;;;;;;;;5013078;28;20041;-75
2023/09/22 05:43:32;;;;;;;29.15;11.10;;;;;;;;;;5012870;28;20030;-75
2023/09/22 05:45:58;;;;;;;24.85;10.02;;;;;;;;;;5013061;28;20022;-75
2023/09/22 05:48:24;;;;;;;30.17;11.13;;;;;;;;;;5012921;28;20038;-75
2023/09/22 05:50:57;;;;;;;25.42;10.10;;;;;;;;;;5012633;28;20034;-75
2023/09/22 05:53:25;;;;;;;30.83;10.60;;;;;;;;;;5012811;28;20053;-75
2023/09/22 05:55:51;;;;;;;29.27;11.60;;;;;;;;;;5012957;28;20022;-75
2023/09/22 05:58:17;;;;;;;25.35;10.63;;;;;;;;;;5012617;28;20108;-75
2023/09/22 06:00:44;;;;;;;27.48;10.57;;;;;;;;;;5012578;28;20117;-75
2023/09/22 06:03:10;;;;;;;27.40;11.45;;;;;;;;;;5013008;28;20464;-75
2023/09/22 06:05:36;;;;;;;32.40;11.50;;;;;;;;;;5012949;28;20029;-75
2023/09/22 06:08:05;;;;;;;31.95;13.27;;;;;;;;;;5012777;28;20096;-75
2023/09/22 06:10:31;;;;;;;33.53;13.18;;;;;;;;;;5012977;28;20026;-75
2023/09/22 06:12:58;;;;;;;35.53;12.98;;;;;;;;;;5012713;28;20030;-75
2023/09/22 06:15:24;;;;;;;31.80;14.32;;;;;;;;;;5012899;28;20076;-75
2023/09/22 06:17:50;;;;;;;34.20;15.13;;;;;;;;;;5012340;28;20037;-75
2023/09/22 06:20:16;;;;;;;32.70;16.10;;;;;;;;;;5012282;28;20050;-75
2023/09/22 06:22:43;;;;;;;31.90;16.23;;;;;;;;;;5012687;28;20595;-75
2023/09/22 06:25:10;;;;;;;34.80;17.45;;;;;;;;;;5014166;28;20472;-74
2023/09/22 06:27:37;;;;;;;34.42;18.00;;;;;;;;;;5014084;28;20334;-74
2023/09/22 06:30:10;;;;;;;34.60;16.98;;;;;;;;;;5013922;28;20084;-74
2023/09/22 06:32:37;;;;;;;35.13;18.13;;;;;;;;;;5012905;28;20025;-74
2023/09/22 06:35:05;;;;;;;36.53;18.38;;;;;;;;;;5012332;28;20578;-74
2023/09/22 06:37:32;;;;;;;34.22;17.98;;;;;;;;;;5012600;28;20030;-74
2023/09/22 06:39:58;;;;;;;30.75;18.02;;;;;;;;;;5014288;28;20416;-74
2023/09/22 06:42:24;;;;;;;31.52;16.13;;;;;;;;;;5016855;28;20101;-74
2023/09/22 06:44:50;;;;;;;30.92;17.38;;;;;;;;;;5015714;28;20018;-74
2023/09/22 06:47:16;;;;;;;32.38;17.92;;;;;;;;;;5015824;28;20654;-75
2023/09/22 06:49:42;;;;;;;30.80;17.38;;;;;;;;;;5015796;28;20025;-75
2023/09/22 06:52:08;;;;;;;32.75;16.08;;;;;;;;;;5015738;28;20587;-75
2023/09/22 06:54:34;;;;;;;32.97;17.75;;;;;;;;;;5015804;28;20105;-75
2023/09/22 06:57:01;;;;;;;33.15;16.80;;;;;;;;;;5013210;28;20022;-75
2023/09/22 06:59:27;;;;;;;33.55;17.40;;;;;;;;;;5016101;28;20026;-75
2023/09/22 07:01:53;;;;;;;31.35;16.40;;;;;;;;;;5015509;28;20022;-75
2023/09/22 07:04:21;;;;;;;32.70;17.23;;;;;;;;;;5015537;28;20716;-75
2023/09/22 07:06:47;;;;;;;26.05;14.88;;;;;;;;;;5016018;28;20022;-75
2023/09/22 07:09:13;;;;;;;28.05;15.57;;;;;;;;;;5015380;28;20026;-75
2023/09/22 07:11:41;;;;;;;24.00;15.05;;;;;;;;;;5015718;28;20061;-75
2023/09/22 07:14:07;;;;;;;23.67;14.20;;;;;;;;;;5015543;28;20620;-75
2023/09/22 07:16:35;;;;;;;19.63;12.77;;;;;;;;;;5015021;28;20032;-75
2023/09/22 07:19:01;;;;;;;16.58;9.38;;;;;;;;;;5014898;28;20041;-75
2023/09/22 07:21:27;;;;;;;11.52;7.47;;;;;;;;;;5013676;28;20046;-75
2023/09/22 07:23:56;;;;;;;12.45;8.63;;;;;;;;;;5004526;28;20034;-75
2023/09/22 07:26:23;;;;;;;13.57;9.52;;;;;;;;;;4995313;28;20056;-75
2023/09/22 07:28:49;;;;;;;10.82;7.30;;;;;;;;;;4995861;28;20031;-75
2023/09/22 07:31:18;;;;;;;8.98;6.95;;;;;;;;;;4995049;28;20022;-75
2023/09/22 07:33:44;;;;;;;10.30;7.38;;;;;;;;;;4995196;28;20023;-75
2023/09/22 07:36:11;;;;;;;10.98;7.50;;;;;;;;;;4994769;28;20027;-75
2023/09/22 07:38:37;;;;;;;10.80;8.00;;;;;;;;;;4994695;28;20026;-75
2023/09/22 07:41:03;;;;;;;12.73;8.52;;;;;;;;;;4994725;28;20064;-75
2023/09/22 07:43:30;;;;;;;10.73;7.78;;;;;;;;;;4999377;28;20457;-75
2023/09/22 07:45:59;;;;;;;10.15;7.38;;;;;;;;;;5014306;28;20038;-75
2023/09/22 07:48:27;;;;;;;11.32;7.88;;;;;;;;;;5014267;28;20045;-75
2023/09/22 07:50:53;;;;;;;10.00;7.20;;;;;;;;;;5013850;28;20361;-75
2023/09/22 07:53:20;;;;;;;12.93;7.60;;;;;;;;;;5014386;28;20026;-74
2023/09/22 07:55:47;;;;;;;9.57;6.90;;;;;;;;;;4994590;28;20015;-75
2023/09/22 07:58:14;;;;;;;7.22;5.82;;;;;;;;;;4994482;28;20026;-75
2023/09/22 08:00:44;;;;;;;9.80;6.38;;;;;;;;;;4994357;28;20015;-75
2023/09/22 08:03:10;;;;;;;7.05;6.32;;;;;;;;;;4993997;28;20073;-75
2023/09/22 08:05:37;;;;;;;6.97;5.20;;;;;;;;;;4994217;28;20034;-75
2023/09/22 08:08:05;;;;;;;7.50;5.30;;;;;;;;;;4994331;28;20022;-75
2023/09/22 08:10:31;;;;;;;9.45;6.45;;;;;;;;;;4994524;28;20057;-75
2023/09/22 08:12:57;;;;;;;6.00;5.10;;;;;;;;;;4994328;28;20623;-75
2023/09/22 08:15:23;;;;;;;8.77;5.45;;;;;;;;;;4994554;28;20098;-75
2023/09/22 08:17:49;;;;;;;7.22;5.03;;;;;;;;;;4994515;28;20041;-76
2023/09/22 08:20:16;;;;;;;7.22;4.68;;;;;;;;;;4995000;28;20657;-76
2023/09/22 08:22:47;;;;;;;6.43;4.50;;;;;;;;;;5013674;28;20449;-76
2023/09/22 08:25:13;;;;;;;4.85;4.18;;;;;;;;;;5013842;28;20577;-76
2023/09/22 08:27:40;;;;;;;5.68;3.95;;;;;;;;;;5013789;28;20041;-76
2023/09/22 08:30:11;;;;;;;5.03;4.05;;;;;;;;;;5013954;28;20453;-76
2023/09/22 08:32:42;;;;;;;6.30;4.00;;;;;;;;;;5013674;28;20554;-76
2023/09/22 08:35:11;;;;;;;4.75;4.30;;;;;;;;;;5013814;28;20026;-76
2023/09/22 08:37:42;;;;;;;4.32;3.97;;;;;;;;;;5013291;28;20038;-76
2023/09/22 08:40:09;;;;;;;5.55;4.20;;;;;;;;;;5013609;28;20375;-76
2023/09/22 08:42:37;;;;;;;3.47;3.17;;;;;;;;;;5013441;28;20589;-76
2023/09/22 08:45:03;;;;;;;4.18;3.20;;;;;;;;;;5013683;28;20085;-76
2023/09/22 08:47:29;;;;;;;4.95;3.47;;;;;;;;;;5013406;28;20091;-76
2023/09/22 08:49:55;;;;;;;5.90;3.83;;;;;;;;;;5013577;28;20033;-76
2023/09/22 08:52:22;;;;;;;3.63;3.20;;;;;;;;;;5013197;28;20022;-76
2023/09/22 08:54:48;;;;;;;5.15;3.80;;;;;;;;;;4995436;28;20586;-76
2023/09/22 08:57:17;;;;;;;5.80;3.90;;;;;;;;;;5013110;28;20053;-76
2023/09/22 08:59:43;;;;;;;5.60;4.78;;;;;;;;;;5013365;28;20026;-76
2023/09/22 09:02:11;;;;;;;8.25;4.65;;;;;;;;;;5012732;28;20029;-76
2023/09/22 09:04:39;;;;;;;5.93;4.25;;;;;;;;;;5013400;28;20018;-76
2023/09/22 09:07:05;;;;;;;4.65;3.88;;;;;;;;;;5013162;28;20026;-75
2023/09/22 09:09:44;;;;;;;4.65;3.50;;;;;;;;;;5012949;28;20018;-76
2023/09/22 09:12:11;;;;;;;4.50;4.07;;;;;;;;;;5012886;28;20349;-75
2023/09/22 09:14:42;;;;;;;4.38;3.83;;;;;;;;;;5012869;28;20022;-75
2023/09/22 09:17:19;;;;;;;6.38;3.80;;;;;;;;;;5012939;28;20040;-76
2023/09/22 09:19:49;;;;;;;6.22;4.82;;;;;;;;;;5012545;28;20022;-76
2023/09/22 09:22:15;;;;;;;6.30;2.90;;;;;;;;;;5013023;28;20095;-75
2023/09/22 09:24:43;;;;;;;2.97;2.28;;;;;;;;;;5012883;28;20115;-76
2023/09/22 09:27:19;;;;;;;2.95;2.08;;;;;;;;;;5013021;28;20034;-76
2023/09/22 09:29:50;;;;;;;2.58;1.77;;;;;;;;;;5012798;28;20680;-75
2023/09/22 09:32:42;;;;;;;1.67;1.40;;;;;;;;;;5012964;28;20113;-75
2023/09/22 09:35:09;;;;;;;2.42;1.77;;;;;;;;;;5008453;28;20120;-75
2023/09/22 09:37:35;;;;;;;1.80;1.60;;;;;;;;;;5012851;28;20392;-75
2023/09/22 09:40:03;;;;;;;3.22;1.90;;;;;;;;;;4995047;28;20468;-75
2023/09/22 09:42:31;;;;;;;4.25;1.80;;;;;;;;;;5012760;28;20105;-75
2023/09/22 09:44:57;;;;;;;3.17;1.88;;;;;;;;;;5012939;28;20030;-75
2023/09/22 09:47:25;;;;;;;2.47;1.83;;;;;;;;;;4994788;28;20459;-76
2023/09/22 09:49:55;;;;;;;3.00;2.08;;;;;;;;;;5012533;28;20129;-75
2023/09/22 09:52:28;;;;;;;4.18;1.95;;;;;;;;;;5012472;28;20471;-75
2023/09/22 09:55:01;;;;;;;1.63;1.52;;;;;;;;;;4994693;28;20030;-76
2023/09/22 09:57:29;;;;;;;2.65;1.83;;;;;;;;;;5012655;28;20069;-76
2023/09/22 09:59:55;;;;;;;1.90;1.80;;;;;;;;;;4994628;28;20377;-75
2023/09/22 10:02:22;;;;;;;2.80;1.60;;;;;;;;;;5012318;28;20026;-75
2023/09/22 10:04:49;;;;;;;2.58;1.90;;;;;;;;;;5012260;28;20022;-75
2023/09/22 10:07:15;;;;;;;2.40;2.08;;;;;;;;;;5012416;28;20495;-75
2023/09/22 10:09:42;;;;;;;3.20;2.10;;;;;;;;;;5012217;28;20097;-75
2023/09/22 10:12:08;;;;;;;2.75;2.22;;;;;;;;;;5011834;28;20022;-75
2023/09/22 10:14:44;;;;;;;2.50;2.30;;;;;;;;;;5014871;28;20101;-75
2023/09/22 10:17:21;;;;;;;4.75;2.20;;;;;;;;;;4996281;28;20042;-75
2023/09/22 10:19:47;;;;;;;2.15;2.03;;;;;;;;;;4996048;28;20018;-76
2023/09/22 10:22:13;;;;;;;2.28;2.08;;;;;;;;;;4996388;28;20030;-75
2023/09/22 10:24:42;;;;;;;2.35;2.10;;;;;;;;;;4996614;28;20073;-75
2023/09/22 10:27:09;;;;;;;2.47;1.90;;;;;;;;;;4996502;28;20026;-76
2023/09/22 10:29:35;;;;;;;2.50;2.30;;;;;;;;;;4996234;28;20026;-75
2023/09/22 10:32:21;;;;;;;2.45;2.20;;;;;;;;;;4996194;28;20072;-75
2023/09/22 10:34:54;;;;;;;2.42;1.85;;;;;;;;;;4996183;28;20469;-75
2023/09/22 10:37:27;;;;;;;1.77;1.67;;;;;;;;;;4996015;28;20042;-75
2023/09/22 10:39:56;;;;;;;1.85;1.73;;;;;;;;;;4996262;28;20420;-75
2023/09/22 10:42:23;;;;;;;2.05;1.95;;;;;;;;;;4996541;28;20092;-75
2023/09/22 10:44:59;;;;;;;2.25;1.67;;;;;;;;;;4996083;28;20073;-75
2023/09/22 10:47:36;;;;;;;1.98;1.77;;;;;;;;;;4995996;28;20392;-75
2023/09/22 10:50:14;;;;;;;5.53;1.67;;;;;;;;;;4996799;28;20022;-76
2023/09/22 10:52:41;;;;;;;1.50;1.40;;;;;;;;;;4996109;28;20065;-75
2023/09/22 10:55:09;;;;;;;1.80;1.70;;;;;;;;;;4996037;28;20018;-75
2023/09/22 10:57:36;;;;;;;1.65;1.40;;;;;;;;;;4995212;28;20049;-75
2023/09/22 11:00:10;;;;;;;2.70;1.90;;;;;;;;;;4995305;28;20050;-75
2023/09/22 11:02:36;;;;;;;2.15;1.70;;;;;;;;;;4995477;28;20184;-75
2023/09/22 11:05:05;;;;;;;3.95;2.03;;;;;;;;;;4995184;28;20700;-75
2023/09/22 11:07:34;;;;;;;2.60;2.30;;;;;;;;;;4995226;28;20030;-75
2023/09/22 11:10:02;;;;;;;3.75;3.35;;;;;;;;;;4995136;28;20027;-75
2023/09/22 11:12:28;;;;;;;2.47;2.30;;;;;;;;;;4995968;28;20472;-75
2023/09/22 11:14:55;;;;;;;3.50;2.40;;;;;;;;;;4995631;28;20026;-75
2023/09/22 11:17:21;;;;;;;2.92;2.17;;;;;;;;;;4995562;28;20039;-75
2023/09/22 11:19:54;;;;;;;1.95;1.85;;;;;;;;;;4995023;28;20381;-76
2023/09/22 11:22:23;;;;;;;2.42;2.25;;;;;;;;;;4995554;28;20034;-75
2023/09/22 11:24:49;;;;;;;3.33;1.88;;;;;;;;;;4995176;28;20026;-75
2023/09/22 11:27:15;;;;;;;2.30;2.10;;;;;;;;;;4995393;28;20034;-75
2023/09/22 11:29:41;;;;;;;2.15;1.90;;;;;;;;;;4995667;28;20094;-75
2023/09/22 11:32:08;;;;;;;3.08;2.83;;;;;;;;;;4995436;28;20026;-75
2023/09/22 11:34:44;;;;;;;2.90;2.30;;;;;;;;;;4995361;28;20512;-75
2023/09/22 11:37:10;;;;;;;3.47;2.58;;;;;;;;;;4995399;28;20035;-75
2023/09/22 11:39:36;;;;;;;2.30;2.10;;;;;;;;;;4995225;28;20030;-75
2023/09/22 11:42:03;;;;;;;2.70;2.25;;;;;;;;;;4995312;28;20620;-76
2023/09/22 11:44:29;;;;;;;2.17;1.70;;;;;;;;;;4995341;28;20049;-75
2023/09/22 11:46:56;;;;;;;1.38;1.27;;;;;;;;;;4994942;28;20366;-75
2023/09/22 11:49:22;;;;;;;3.58;1.10;;;;;;;;;;4995023;28;20030;-75
2023/09/22 11:51:50;;;;;;;2.13;0.90;;;;;;;;;;4994826;28;20077;-75
2023/09/22 11:54:20;;;;;;;2.58;1.08;;;;;;;;;;4994674;28;20477;-76
2023/09/22 11:56:46;;;;;;;;;;;;;;;;;;4995222;28;20077;-75
2023/09/22 11:59:17;;;;;;;1.63;1.05;;;;;;;;;;4994602;28;19914;-75
2023/09/22 12:01:45;;;;;;;1.42;1.33;;;;;;;;;;4994702;28;20101;-75
2023/09/22 12:04:11;;;;;;;1.92;1.27;;;;;;;;;;4994708;28;20033;-76
2023/09/22 12:06:40;;;;;;;2.95;1.30;;;;;;;;;;4994492;28;20060;-75
2023/09/22 12:09:08;;;;;;;2.63;1.33;;;;;;;;;;4994385;28;20037;-75
2023/09/22 12:11:34;;;;;;;1.23;0.90;;;;;;;;;;4994406;28;20039;-75
2023/09/22 12:14:00;;;;;;;2.67;0.77;;;;;;;;;;4994036;28;20026;-75
2023/09/22 12:16:27;;;;;;;1.83;0.80;;;;;;;;;;4994444;28;20532;-75
2023/09/22 12:18:53;;;;;;;0.80;0.80;;;;;;;;;;4994188;28;20045;-75
2023/09/22 12:21:19;;;;;;;1.15;0.82;;;;;;;;;;4993211;28;20050;-75
2023/09/22 12:23:45;;;;;;;0.70;0.35;;;;;;;;;;4994120;28;20026;-75
2023/09/22 12:26:11;;;;;;;0.30;0.30;;;;;;;;;;4994052;28;20546;-75
2023/09/22 12:28:40;;;;;;;1.40;0.35;;;;;;;;;;4994293;28;20026;-75
2023/09/22 12:31:06;;;;;;;1.38;0.32;;;;;;;;;;4994268;28;20022;-75
2023/09/22 12:33:32;;;;;;;2.63;0.45;;;;;;;;;;4993942;28;20034;-75
2023/09/22 12:35:58;;;;;;;0.20;0.20;;;;;;;;;;4994286;28;20023;-75
2023/09/22 12:38:25;;;;;;;0.57;0.20;;;;;;;;;;4992903;28;20439;-75
2023/09/22 12:40:51;;;;;;;1.40;0.30;;;;;;;;;;4993786;28;20405;-76
2023/09/22 12:43:17;;;;;;;0.93;0.45;;;;;;;;;;4993617;28;20447;-75
2023/09/22 12:45:44;;;;;;;2.60;0.80;;;;;;;;;;4993756;28;20033;-75
2023/09/22 12:48:13;;;;;;;1.45;0.70;;;;;;;;;;4993520;28;20030;-75
2023/09/22 12:50:39;;;;;;;2.08;0.90;;;;;;;;;;4993593;28;20033;-75
2023/09/22 12:53:06;;;;;;;0.93;0.70;;;;;;;;;;4993977;28;20038;-75
2023/09/22 12:55:32;;;;;;;1.33;0.60;;;;;;;;;;4993547;28;20026;-75
2023/09/22 12:57:59;;;;;;;2.45;0.60;;;;;;;;;;4993464;28;20516;-75
2023/09/22 13:00:25;;;;;;;1.75;0.60;;;;;;;;;;4993834;28;20034;-75
2023/09/22 13:02:51;;;;;;;0.68;0.45;;;;;;;;;;4993695;28;20077;-76
2023/09/22 13:05:17;;;;;;;2.17;0.40;;;;;;;;;;4993573;28;20022;-76
2023/09/22 13:07:43;;;;;;;1.85;0.43;;;;;;;;;;4993807;28;20034;-75
2023/09/22 13:10:11;;;;;;;1.67;0.47;;;;;;;;;;4993609;28;20038;-75
2023/09/22 13:12:38;;;;;;;2.33;0.60;;;;;;;;;;4993820;28;20053;-75
2023/09/22 13:15:05;;;;;;;1.67;0.50;;;;;;;;;;4976185;28;20408;-75
2023/09/22 13:17:31;;;;;;;0.65;0.38;;;;;;;;;;4992704;28;20530;-75
2023/09/22 13:19:57;;;;;;;2.17;0.40;;;;;;;;;;4992649;28;20082;-76
2023/09/22 13:22:23;;;;;;;1.25;0.30;;;;;;;;;;4993502;28;20053;-75
2023/09/22 13:24:49;;;;;;;0.75;0.25;;;;;;;;;;5007582;28;20697;-75
2023/09/22 13:27:15;;;;;;;1.13;0.40;;;;;;;;;;5012911;28;20049;-75
2023/09/22 13:29:41;;;;;;;1.83;0.30;;;;;;;;;;5012995;28;20075;-75
2023/09/22 13:32:09;;;;;;;2.83;0.40;;;;;;;;;;5012564;28;20105;-75
2023/09/22 13:34:35;;;;;;;0.60;0.38;;;;;;;;;;5013061;28;20022;-75
2023/09/22 13:37:02;;;;;;;3.60;0.20;;;;;;;;;;5013118;28;20029;-75
2023/09/22 13:39:30;;;;;;;0.47;0.20;;;;;;;;;;5011928;28;20022;-75
2023/09/22 13:41:57;;;;;;;0.20;0.20;;;;;;;;;;5011133;28;20030;-75
2023/09/22 13:44:23;;;;;;;0.52;0.20;;;;;;;;;;5011308;28;20029;-75
2023/09/22 13:46:49;;;;;;;0.55;0.40;;;;;;;;;;4994306;28;20499;-75
2023/09/22 13:49:16;;;;;;;0.93;0.47;;;;;;;;;;5014851;28;20109;-75
2023/09/22 13:51:43;;;;;;;1.45;0.30;;;;;;;;;;5016795;28;20377;-75
2023/09/22 13:54:09;;;;;;;1.58;0.50;;;;;;;;;;5016573;28;20080;-75
2023/09/22 13:56:35;;;;;;;3.58;0.60;;;;;;;;;;5016800;28;20049;-76
2023/09/22 13:59:01;;;;;;;0.60;0.50;;;;;;;;;;5016742;28;20036;-75
2023/09/22 14:01:27;;;;;;;0.57;0.30;;;;;;;;;;5016713;28;20345;-75
2023/09/22 14:03:53;;;;;;;0.68;0.22;;;;;;;;;;5016392;28;20088;-75
2023/09/22 14:06:21;;;;;;;1.77;0.52;;;;;;;;;;5016299;28;20021;-75
2023/09/22 14:08:49;;;;;;;0.52;0.20;;;;;;;;;;4998560;28;20030;-75
2023/09/22 14:11:21;;;;;;;1.45;0.30;;;;;;;;;;5016394;28;20029;-75
2023/09/22 14:13:47;;;;;;;2.65;0.30;;;;;;;;;;4998425;28;20088;-75
2023/09/22 14:16:13;;;;;;;1.02;0.20;;;;;;;;;;5016355;28;20105;-75
2023/09/22 14:18:39;;;;;;;0.85;0.30;;;;;;;;;;5015930;28;20113;-75
2023/09/22 14:21:09;;;;;;;0.52;0.20;;;;;;;;;;5015605;28;20508;-75
2023/09/22 14:23:35;;;;;;;1.50;0.30;;;;;;;;;;5015711;28;20033;-75
2023/09/22 14:26:03;;;;;;;0.65;0.20;;;;;;;;;;5015885;28;20079;-75
2023/09/22 14:28:30;;;;;;;1.15;0.50;;;;;;;;;;5016230;28;20026;-75
2023/09/22 14:30:56;;;;;;;0.85;0.30;;;;;;;;;;5015535;28;20022;-75
2023/09/22 14:33:22;;;;;;;1.13;0.20;;;;;;;;;;5015785;28;20030;-75
2023/09/22 14:35:48;;;;;;;1.42;0.20;;;;;;;;;;5015512;28;20101;-75